createdAt,value
2022-09-20T00:01:28.170Z,0.40
2022-09-20T00:03:57.648Z,0.30
2022-09-20T00:06:27.481Z,0.50
2022-09-20T00:08:54.397Z,0.60
2022-09-20T00:11:29.265Z,0.30
2022-09-20T00:13:58.246Z,0.40
2022-09-20T00:16:32.250Z,0.40
2022-09-20T00:19:01.034Z,0.28
2022-09-20T00:21:29.750Z,0.30
2022-09-20T00:24:00.023Z,0.80
2022-09-20T00:26:27.663Z,0.43
2022-09-20T00:28:55.011Z,0.35
2022-09-20T00:31:21.921Z,0.50
2022-09-20T00:34:07.306Z,0.40
2022-09-20T00:36:33.791Z,0.40
2022-09-20T00:39:02.226Z,0.32
2022-09-20T00:41:30.680Z,0.45
2022-09-20T00:43:58.097Z,0.28
2022-09-20T00:46:30.364Z,0.30
2022-09-20T00:49:06.296Z,0.30
2022-09-20T00:51:38.742Z,0.40
2022-09-20T00:54:08.779Z,0.30
2022-09-20T00:56:40.852Z,0.40
2022-09-20T00:59:21.604Z,0.50
2022-09-20T01:01:56.642Z,0.25
2022-09-20T01:04:27.083Z,0.35
2022-09-20T01:06:56.267Z,0.30
2022-09-20T01:09:22.660Z,0.40
2022-09-20T01:11:52.065Z,0.20
2022-09-20T01:14:20.133Z,0.40
2022-09-20T01:16:46.697Z,0.50
2022-09-20T01:19:31.650Z,0.40
2022-09-20T01:21:58.303Z,0.30
2022-09-20T01:24:38.704Z,0.30
2022-09-20T01:27:14.539Z,0.30
2022-09-20T01:30:13.228Z,0.30
2022-09-20T01:33:00.315Z,0.35
2022-09-20T01:35:28.769Z,0.30
2022-09-20T01:38:29.865Z,0.30
2022-09-20T01:40:56.225Z,0.30
2022-09-20T01:43:37.221Z,0.17
2022-09-20T01:46:21.821Z,0.50
2022-09-20T01:48:50.174Z,0.30
2022-09-20T01:51:34.351Z,0.28
2022-09-20T01:54:16.767Z,0.30
2022-09-20T01:56:55.057Z,0.30
2022-09-20T01:59:33.726Z,0.43
2022-09-20T02:02:09.098Z,0.30
2022-09-20T02:04:58.879Z,0.30
2022-09-20T02:08:00.865Z,0.28
2022-09-20T02:10:41.564Z,0.20
2022-09-20T02:13:31.680Z,0.20
2022-09-20T02:16:05.165Z,0.20
2022-09-20T02:18:52.927Z,0.30
2022-09-20T02:21:31.477Z,0.30
2022-09-20T02:24:22.211Z,0.40
2022-09-20T02:27:22.312Z,0.22
2022-09-20T02:29:57.157Z,0.30
2022-09-20T02:32:38.469Z,0.40
2022-09-20T02:35:39.029Z,0.35
2022-09-20T02:38:31.057Z,0.30
2022-09-20T02:41:11.431Z,0.10
2022-09-20T02:43:51.134Z,0.50
2022-09-20T02:46:28.721Z,0.30
2022-09-20T02:49:09.819Z,0.30
2022-09-20T02:51:42.739Z,0.32
2022-09-20T02:54:42.643Z,0.40
2022-09-20T02:57:21.349Z,0.28
2022-09-20T02:59:59.715Z,0.30
2022-09-20T03:02:28.988Z,0.30
2022-09-20T03:05:30.570Z,0.20
2022-09-20T03:08:30.009Z,0.22
2022-09-20T03:11:15.099Z,0.20
2022-09-20T03:14:06.773Z,0.30
2022-09-20T03:17:10.570Z,0.30
2022-09-20T03:19:40.131Z,0.30
2022-09-20T03:22:19.564Z,0.30
2022-09-20T03:25:04.788Z,0.20
2022-09-20T03:27:55.763Z,0.40
2022-09-20T03:30:59.666Z,0.40
2022-09-20T03:33:41.581Z,0.20
2022-09-20T03:36:23.197Z,0.22
2022-09-20T03:39:21.511Z,0.15
2022-09-20T03:41:56.148Z,0.10
2022-09-20T03:44:48.007Z,0.32
2022-09-20T03:48:08.593Z,0.20
2022-09-20T03:50:56.134Z,0.35
2022-09-20T03:54:07.165Z,0.22
2022-09-20T03:56:49.363Z,0.22
2022-09-20T03:59:39.043Z,0.20
2022-09-20T04:02:33.878Z,0.20
2022-09-20T04:05:29.406Z,0.43
2022-09-20T04:08:16.316Z,0.30
2022-09-20T04:10:59.616Z,0.22
2022-09-20T04:13:32.134Z,0.30
2022-09-20T04:16:23.388Z,0.57
2022-09-20T04:18:57.728Z,0.50
2022-09-20T04:21:36.280Z,0.40
2022-09-20T04:24:10.834Z,0.30
2022-09-20T04:26:44.201Z,0.80
2022-09-20T04:29:36.408Z,1.13
2022-09-20T04:32:13.943Z,1.20
2022-09-20T04:35:12.714Z,1.42
2022-09-20T04:37:42.557Z,1.10
2022-09-20T04:40:33.797Z,1.13
2022-09-20T04:43:15.405Z,1.13
2022-09-20T04:45:51.486Z,1.27
2022-09-20T04:48:42.737Z,1.50
2022-09-20T04:51:23.300Z,1.23
2022-09-20T04:53:55.690Z,1.10
2022-09-20T04:56:47.104Z,1.33
2022-09-20T04:59:22.212Z,1.40
2022-09-20T05:02:26.134Z,1.15
2022-09-20T05:05:24.640Z,1.27
2022-09-20T05:08:56.694Z,1.83
2022-09-20T05:11:37.263Z,1.30
2022-09-20T05:14:41.818Z,1.20
2022-09-20T05:17:41.762Z,1.45
2022-09-20T05:20:10.886Z,1.25
2022-09-20T05:22:58.716Z,1.20
2022-09-20T05:25:46.731Z,1.33
2022-09-20T05:28:16.472Z,1.30
2022-09-20T05:30:49.674Z,1.33
2022-09-20T05:33:33.843Z,1.25
2022-09-20T05:36:14.175Z,1.23
2022-09-20T05:39:03.525Z,1.33
2022-09-20T05:41:39.175Z,1.30
2022-09-20T05:44:24.505Z,1.00
2022-09-20T05:47:18.282Z,1.30
2022-09-20T05:50:03.480Z,1.00
2022-09-20T05:52:54.563Z,1.23
2022-09-20T05:55:50.196Z,1.20
2022-09-20T05:58:45.516Z,1.13
2022-09-20T06:01:23.260Z,1.02
2022-09-20T06:04:00.728Z,1.10
2022-09-20T06:06:38.486Z,0.90
2022-09-20T06:09:26.906Z,0.88
2022-09-20T06:12:05.922Z,0.95
2022-09-20T06:15:00.088Z,0.90
2022-09-20T06:17:43.802Z,1.00
2022-09-20T06:20:29.521Z,0.80
2022-09-20T06:23:00.111Z,0.90
2022-09-20T06:25:57.196Z,0.50
2022-09-20T06:28:30.681Z,1.00
2022-09-20T06:30:57.393Z,1.10
2022-09-20T06:33:28.909Z,1.20
2022-09-20T06:36:25.822Z,0.90
2022-09-20T06:39:32.452Z,1.00
2022-09-20T06:42:00.756Z,0.80
2022-09-20T06:44:27.223Z,1.10
2022-09-20T06:46:54.294Z,0.70
2022-09-20T06:49:21.896Z,0.90
2022-09-20T06:51:50.705Z,0.90
2022-09-20T06:54:19.999Z,1.00
2022-09-20T06:56:49.396Z,1.00
2022-09-20T06:59:15.794Z,0.85
2022-09-20T07:01:42.878Z,1.00
2022-09-20T07:04:09.700Z,1.10
2022-09-20T07:06:36.389Z,0.90
2022-09-20T07:09:03.071Z,0.80
2022-09-20T07:11:29.875Z,0.88
2022-09-20T07:13:58.224Z,1.08
2022-09-20T07:16:26.336Z,1.10
2022-09-20T07:18:53.370Z,1.00
2022-09-20T07:21:21.214Z,0.93
2022-09-20T07:23:51.140Z,1.10
2022-09-20T07:26:23.499Z,2.25
2022-09-20T07:28:50.483Z,1.40
2022-09-20T07:31:18.909Z,0.90
2022-09-20T07:33:45.419Z,0.90
2022-09-20T07:36:12.390Z,1.10
2022-09-20T07:38:39.996Z,0.80
2022-09-20T07:41:06.936Z,1.02
2022-09-20T07:43:33.651Z,1.00
2022-09-20T07:46:00.165Z,1.60
2022-09-20T07:48:30.768Z,1.00
2022-09-20T07:51:04.722Z,0.93
2022-09-20T07:53:35.100Z,1.20
2022-09-20T07:56:09.929Z,1.25
2022-09-20T07:58:36.744Z,1.55
2022-09-20T08:01:07.354Z,1.50
2022-09-20T08:03:34.946Z,1.45
2022-09-20T08:06:03.340Z,1.17
2022-09-20T08:08:32.889Z,1.00
2022-09-20T08:11:15.469Z,1.30
2022-09-20T08:16:39.354Z,0.90
2022-09-20T08:19:06.350Z,1.50
2022-09-20T08:21:34.148Z,2.50
2022-09-20T08:24:01.373Z,0.90
2022-09-20T08:26:29.365Z,0.93
2022-09-20T08:28:57.990Z,0.88
2022-09-20T08:31:27.057Z,0.68
2022-09-20T08:33:54.655Z,0.98
2022-09-20T08:36:25.724Z,1.00
2022-09-20T08:41:47.053Z,1.05
2022-09-20T08:44:18.945Z,0.88
2022-09-20T08:46:50.002Z,1.00
2022-09-20T08:49:27.240Z,1.00
2022-09-20T08:51:57.399Z,0.70
2022-09-20T08:54:25.036Z,0.77
2022-09-20T08:56:52.323Z,0.82
2022-09-20T08:59:21.245Z,0.50
2022-09-20T09:01:49.905Z,0.85
2022-09-20T09:04:19.991Z,0.67
2022-09-20T09:06:46.726Z,0.80
2022-09-20T09:09:23.116Z,0.70
2022-09-20T09:11:50.511Z,0.88
2022-09-20T09:14:42.057Z,1.17
2022-09-20T09:17:12.858Z,0.85
2022-09-20T09:19:52.340Z,0.82
2022-09-20T09:22:29.174Z,0.55
2022-09-20T09:25:14.584Z,0.70
2022-09-20T09:28:00.793Z,0.50
2022-09-20T09:30:34.217Z,0.70
2022-09-20T09:33:34.079Z,1.00
2022-09-20T09:36:08.776Z,1.15
2022-09-20T09:38:37.894Z,1.20
2022-09-20T09:41:29.806Z,1.23
2022-09-20T09:44:29.291Z,0.60
2022-09-20T09:46:57.310Z,0.73
2022-09-20T09:49:34.146Z,0.95
2022-09-20T09:52:17.748Z,1.17
2022-09-20T09:54:50.550Z,0.65
2022-09-20T09:57:58.438Z,0.68
2022-09-20T10:00:27.249Z,1.10
2022-09-20T10:03:30.276Z,1.63
2022-09-20T10:06:04.497Z,0.70
2022-09-20T10:08:37.332Z,0.60
2022-09-20T10:11:10.199Z,0.90
2022-09-20T10:13:53.210Z,0.50
2022-09-20T10:16:37.590Z,1.30
2022-09-20T10:19:13.022Z,1.40
2022-09-20T10:21:52.391Z,0.75
2022-09-20T10:24:30.574Z,0.60
2022-09-20T10:27:30.327Z,1.10
2022-09-20T10:30:08.801Z,0.60
2022-09-20T10:32:56.677Z,0.73
2022-09-20T10:35:37.182Z,1.65
2022-09-20T10:38:14.314Z,1.27
2022-09-20T10:41:12.066Z,0.60
2022-09-20T10:44:05.147Z,1.55
2022-09-20T10:47:07.194Z,1.40
2022-09-20T10:50:00.940Z,0.40
2022-09-20T10:52:34.329Z,0.65
2022-09-20T10:55:33.460Z,0.65
2022-09-20T10:58:14.904Z,0.57
2022-09-20T11:00:53.867Z,0.80
2022-09-20T11:03:48.219Z,1.73
2022-09-20T11:06:37.735Z,1.75
2022-09-20T11:09:13.824Z,0.82
2022-09-20T11:11:46.256Z,0.75
2022-09-20T11:14:19.332Z,0.50
2022-09-20T11:16:45.819Z,0.95
2022-09-20T11:19:28.560Z,0.75
2022-09-20T11:22:27.399Z,1.80
2022-09-20T11:25:02.912Z,1.30
2022-09-20T11:27:47.523Z,0.90
2022-09-20T11:30:20.108Z,0.70
2022-09-20T11:32:53.126Z,0.57
2022-09-20T11:35:40.364Z,0.70
2022-09-20T11:38:43.822Z,0.73
2022-09-20T11:41:25.787Z,0.63
2022-09-20T11:43:55.684Z,0.38
2022-09-20T11:46:27.649Z,0.63
2022-09-20T11:49:16.137Z,0.80
2022-09-20T11:52:01.382Z,0.80
2022-09-20T11:54:41.462Z,0.60
2022-09-20T11:57:14.102Z,0.95
2022-09-20T11:59:42.934Z,0.70
2022-09-20T12:02:48.494Z,0.80
2022-09-20T12:05:33.876Z,1.27
2022-09-20T12:08:04.129Z,0.95
2022-09-20T12:10:37.380Z,1.10
2022-09-20T12:13:07.223Z,0.88
2022-09-20T12:15:39.484Z,1.50
2022-09-20T12:18:33.074Z,1.60
2022-09-20T12:21:00.861Z,1.23
2022-09-20T12:23:40.346Z,1.20
2022-09-20T12:26:20.796Z,1.02
2022-09-20T12:28:53.115Z,0.90
2022-09-20T12:31:22.653Z,1.00
2022-09-20T12:36:44.480Z,1.33
2022-09-20T12:39:19.097Z,2.05
2022-09-20T12:41:48.245Z,1.67
2022-09-20T12:44:55.203Z,2.05
2022-09-20T12:47:28.527Z,1.77
2022-09-20T12:50:16.517Z,1.02
2022-09-20T12:52:58.599Z,2.20
2022-09-20T12:56:09.659Z,1.23
2022-09-20T12:58:39.820Z,1.92
2022-09-20T13:01:08.492Z,1.08
2022-09-20T13:03:41.314Z,0.70
2022-09-20T13:06:17.743Z,0.98
2022-09-20T13:08:53.612Z,0.80
2022-09-20T13:11:38.485Z,0.70
2022-09-20T13:14:08.209Z,0.60
2022-09-20T13:16:37.400Z,0.70
2022-09-20T13:19:06.753Z,1.63
2022-09-20T13:21:40.632Z,4.35
2022-09-20T13:24:12.017Z,2.58
2022-09-20T13:26:45.995Z,2.58
2022-09-20T13:29:24.601Z,2.05
2022-09-20T13:31:51.067Z,1.60
2022-09-20T13:34:25.749Z,1.50
2022-09-20T13:36:58.356Z,1.50
2022-09-20T13:39:36.148Z,1.45
2022-09-20T13:42:09.073Z,0.75
2022-09-20T13:44:37.270Z,2.10
2022-09-20T13:47:21.813Z,1.23
2022-09-20T13:49:48.336Z,0.65
2022-09-20T13:52:30.595Z,1.00
2022-09-20T13:54:57.368Z,0.63
2022-09-20T13:57:30.016Z,0.98
2022-09-20T13:59:58.031Z,0.80
2022-09-20T14:02:29.882Z,0.70
2022-09-20T14:05:00.582Z,0.90
2022-09-20T14:07:29.506Z,1.25
2022-09-20T14:09:58.131Z,1.00
2022-09-20T14:12:25.762Z,0.80
2022-09-20T14:14:53.608Z,0.82
2022-09-20T14:17:24.330Z,0.52
2022-09-20T14:19:54.472Z,0.80
2022-09-20T14:22:28.318Z,0.73
2022-09-20T14:25:04.682Z,0.88
2022-09-20T14:27:31.509Z,1.65
2022-09-20T14:29:58.775Z,2.55
2022-09-20T14:32:37.448Z,1.75
2022-09-20T14:35:06.744Z,1.20
2022-09-20T14:37:52.992Z,1.27
2022-09-20T14:40:22.193Z,0.90
2022-09-20T14:43:01.455Z,3.03
2022-09-20T14:45:35.212Z,1.85
2022-09-20T14:48:09.553Z,1.58
2022-09-20T14:50:45.527Z,1.08
2022-09-20T14:53:12.327Z,0.90
2022-09-20T14:55:58.731Z,0.88
2022-09-20T14:58:26.280Z,0.80
2022-09-20T15:01:06.335Z,1.00
2022-09-20T15:03:41.353Z,0.68
2022-09-20T15:06:12.825Z,0.85
2022-09-20T15:08:44.134Z,1.17
2022-09-20T15:11:17.545Z,1.20
2022-09-20T15:13:44.292Z,1.27
2022-09-20T15:16:13.410Z,1.20
2022-09-20T15:18:42.352Z,0.80
2022-09-20T15:21:10.804Z,0.50
2022-09-20T15:23:39.352Z,0.63
2022-09-20T15:26:07.064Z,0.70
2022-09-20T15:28:33.679Z,1.13
2022-09-20T15:31:00.255Z,1.33
2022-09-20T15:33:30.662Z,1.33
2022-09-20T15:35:57.349Z,0.90
2022-09-20T15:38:26.812Z,0.90
2022-09-20T15:40:53.952Z,0.80
2022-09-20T15:43:24.179Z,0.90
2022-09-20T15:45:56.533Z,0.95
2022-09-20T15:48:26.069Z,1.10
2022-09-20T15:51:02.898Z,1.00
2022-09-20T15:53:34.466Z,0.80
2022-09-20T15:56:04.301Z,0.95
2022-09-20T15:58:36.547Z,0.90
2022-09-20T16:01:08.325Z,1.00
2022-09-20T16:03:36.146Z,0.90
2022-09-20T16:06:05.056Z,1.17
2022-09-20T16:08:37.338Z,1.00
2022-09-20T16:11:05.921Z,0.70
2022-09-20T16:13:32.396Z,0.85
2022-09-20T16:16:02.162Z,0.88
2022-09-20T16:18:47.971Z,1.20
2022-09-20T16:21:16.861Z,0.85
2022-09-20T16:23:48.596Z,0.98
2022-09-20T16:26:15.208Z,0.85
2022-09-20T16:28:47.251Z,1.10
2022-09-20T16:31:35.985Z,0.90
2022-09-20T16:34:05.339Z,0.80
2022-09-20T16:36:32.879Z,1.05
2022-09-20T16:38:59.872Z,1.00
2022-09-20T16:41:28.336Z,0.85
2022-09-20T16:43:55.329Z,0.90
2022-09-20T16:46:27.058Z,1.10
2022-09-20T16:48:55.594Z,0.80
2022-09-20T16:51:25.032Z,0.80
2022-09-20T16:53:54.508Z,1.10
2022-09-20T16:56:26.298Z,0.80
2022-09-20T16:58:53.839Z,0.88
2022-09-20T17:01:20.407Z,0.93
2022-09-20T17:03:47.610Z,0.80
2022-09-20T17:06:16.409Z,0.73
2022-09-20T17:08:44.838Z,0.95
2022-09-20T17:11:19.185Z,1.10
2022-09-20T17:13:45.692Z,0.85
2022-09-20T17:16:14.809Z,1.63
2022-09-20T17:18:43.189Z,0.80
2022-09-20T17:21:14.855Z,1.10
2022-09-20T17:23:45.545Z,0.60
2022-09-20T17:26:17.705Z,0.90
2022-09-20T17:28:51.326Z,0.82
2022-09-20T17:31:21.046Z,0.98
2022-09-20T17:33:47.791Z,1.50
2022-09-20T17:36:21.439Z,1.00
2022-09-20T17:38:54.786Z,1.00
2022-09-20T17:41:22.592Z,0.90
2022-09-20T17:43:53.471Z,1.30
2022-09-20T17:46:25.877Z,1.83
2022-09-20T17:48:55.554Z,1.13
2022-09-20T17:53:53.301Z,1.52
2022-09-20T17:56:23.179Z,1.30
2022-09-20T17:58:50.056Z,1.00
2022-09-20T18:01:18.757Z,0.90
2022-09-20T18:03:46.645Z,1.27
2022-09-20T18:06:20.941Z,1.05
2022-09-20T18:08:49.588Z,1.35
2022-09-20T18:11:18.042Z,0.90
2022-09-20T18:13:44.795Z,1.00
2022-09-20T18:16:12.440Z,1.27
2022-09-20T18:18:40.887Z,0.80
2022-09-20T18:21:12.294Z,0.90
2022-09-20T18:23:38.736Z,1.13
2022-09-20T18:26:21.936Z,1.02
2022-09-20T18:29:03.031Z,0.98
2022-09-20T18:31:36.169Z,0.88
2022-09-20T18:34:07.758Z,0.95
2022-09-20T18:36:36.372Z,1.00
2022-09-20T18:39:03.702Z,1.17
2022-09-20T18:41:33.181Z,0.90
2022-09-20T18:44:01.437Z,1.10
2022-09-20T18:46:30.519Z,1.27
2022-09-20T18:49:01.357Z,1.13
2022-09-20T18:51:33.807Z,0.90
2022-09-20T18:54:02.345Z,1.05
2022-09-20T18:56:36.023Z,1.23
2022-09-20T18:59:08.472Z,0.80
2022-09-20T19:01:50.431Z,0.90
2022-09-20T19:04:45.102Z,0.73
2022-09-20T19:07:23.797Z,0.90
2022-09-20T19:10:05.498Z,1.07
2022-09-20T19:12:46.187Z,1.00
2022-09-20T19:15:31.034Z,1.02
2022-09-20T19:18:23.899Z,1.05
2022-09-20T19:21:09.327Z,0.77
2022-09-20T19:24:02.484Z,1.00
2022-09-20T19:26:31.733Z,0.73
2022-09-20T19:29:00.151Z,0.90
2022-09-20T19:31:28.522Z,0.82
2022-09-20T19:33:57.381Z,0.80
2022-09-20T19:36:26.465Z,0.80
2022-09-20T19:39:07.752Z,1.10
2022-09-20T19:41:58.099Z,0.73
2022-09-20T19:44:51.316Z,1.25
2022-09-20T19:47:46.494Z,1.00
2022-09-20T19:50:36.060Z,0.90
2022-09-20T19:55:32.360Z,0.93
2022-09-20T19:57:59.441Z,1.00
2022-09-20T20:00:26.191Z,0.88
2022-09-20T20:02:53.855Z,0.95
2022-09-20T20:05:25.616Z,0.90
2022-09-20T20:08:07.896Z,1.13
2022-09-20T20:10:49.733Z,0.82
2022-09-20T20:14:00.754Z,0.85
2022-09-20T20:16:37.063Z,0.88
2022-09-20T20:19:31.042Z,1.02
2022-09-20T20:22:31.319Z,0.93
2022-09-20T20:24:57.852Z,1.10
2022-09-20T20:27:28.174Z,1.20
2022-09-20T20:29:55.500Z,1.00
2022-09-20T20:32:21.991Z,0.98
2022-09-20T20:34:48.519Z,0.90
2022-09-20T20:37:15.742Z,1.02
2022-09-20T20:39:42.080Z,0.90
2022-09-20T20:42:09.962Z,0.90
2022-09-20T20:44:36.361Z,1.58
2022-09-20T20:47:04.430Z,0.93
2022-09-20T20:49:30.980Z,1.23
2022-09-20T20:51:58.524Z,0.80
2022-09-20T20:54:25.357Z,0.95
2022-09-20T20:56:51.790Z,1.08
2022-09-20T20:59:18.138Z,1.08
2022-09-20T21:01:47.271Z,0.93
2022-09-20T21:04:15.620Z,0.90
2022-09-20T21:06:42.459Z,1.10
2022-09-20T21:09:10.596Z,0.85
2022-09-20T21:11:40.243Z,0.95
2022-09-20T21:16:36.196Z,1.05
2022-09-20T21:19:04.184Z,1.02
2022-09-20T21:21:36.130Z,1.20
2022-09-20T21:24:05.485Z,1.10
2022-09-20T21:26:34.101Z,1.05
2022-09-20T21:29:02.836Z,1.00
2022-09-20T21:31:34.027Z,0.90
2022-09-20T21:34:00.875Z,1.00
2022-09-20T21:36:29.376Z,1.20
2022-09-20T21:38:56.368Z,1.58
2022-09-20T21:41:30.157Z,1.10
2022-09-20T21:44:00.032Z,1.30
2022-09-20T21:46:35.713Z,1.30
2022-09-20T21:49:05.125Z,1.48
2022-09-20T21:51:32.763Z,1.13
2022-09-20T21:54:01.685Z,1.48
2022-09-20T21:56:33.594Z,1.15
2022-09-20T21:59:02.487Z,1.38
2022-09-20T22:01:33.509Z,1.27
2022-09-20T22:04:00.910Z,1.48
2022-09-20T22:06:33.064Z,1.10
2022-09-20T22:09:06.056Z,1.40
2022-09-20T22:11:35.948Z,1.38
2022-09-20T22:14:02.414Z,1.40
2022-09-20T22:16:31.157Z,1.30
2022-09-20T22:18:59.684Z,1.10
2022-09-20T22:21:32.172Z,1.20
2022-09-20T22:24:01.431Z,1.20
2022-09-20T22:26:34.135Z,1.27
2022-09-20T22:29:00.550Z,1.40
2022-09-20T22:31:29.696Z,1.50
2022-09-20T22:33:58.379Z,1.52
2022-09-20T22:36:30.056Z,1.20
2022-09-20T22:38:56.936Z,1.10
2022-09-20T22:41:24.256Z,1.23
2022-09-20T22:43:50.626Z,1.23
2022-09-20T22:46:19.571Z,1.30
2022-09-20T22:48:46.874Z,1.70
2022-09-20T22:51:22.567Z,1.48
2022-09-20T22:53:49.776Z,1.17
2022-09-20T22:56:28.839Z,1.20
2022-09-20T22:59:05.128Z,1.20
2022-09-20T23:01:37.432Z,1.30
2022-09-20T23:04:07.751Z,1.27
2022-09-20T23:06:40.446Z,1.48
2022-09-20T23:09:09.903Z,1.30
2022-09-20T23:11:37.678Z,1.30
2022-09-20T23:14:05.898Z,1.23
2022-09-20T23:16:35.245Z,1.25
2022-09-20T23:19:03.516Z,1.40
2022-09-20T23:21:30.075Z,1.60
2022-09-20T23:23:59.063Z,1.70
2022-09-20T23:26:27.020Z,1.33
2022-09-20T23:28:55.994Z,1.00
2022-09-20T23:31:23.118Z,1.50
2022-09-20T23:33:55.186Z,1.13
2022-09-20T23:36:22.467Z,1.17
2022-09-20T23:38:49.469Z,1.55
2022-09-20T23:41:18.260Z,1.20
2022-09-20T23:43:45.014Z,1.48
2022-09-20T23:46:12.794Z,1.20
2022-09-20T23:48:41.809Z,1.27
2022-09-20T23:51:13.112Z,1.08
2022-09-20T23:53:40.124Z,1.30
2022-09-20T23:56:07.336Z,1.30
2022-09-20T23:58:36.306Z,1.17
